»·PEaware :: N377AM KVGT-KSDL

N377AM :: KVGT-KSDL

FLIGHT INFORMATION

Flight Status: Arrived
Operator: Privately registered:
United States
More flights under this callsign
Pilot: Andrew M. (139)
Aircraft: SOCATA TBM-900
(TBM9)
More flights by this aircraft type
Origin: KVGT North Las Vegas
United States
Destination: KSDL Scottsdale
United States
More flights between these airports :: More routes between these airports
Route: NOTWN5 LAS BLD IGM KIDDR2 DSERT2
File this flight plan on PilotEdge
Remarks:
Altitude:
(Current/Filed)
31,000ft
Speed:
(Current/Filed)
300kts
Departed: 12-Feb-19 06:30 PM
Arrived: 12-Feb-19 07:39 PM
Distance/Time
Traveled:
0nm/1:08
Distance/Time
To Go:
Arrived

Flight Plot

Page will automatically refresh every two minutes.

Flight plan parsing failed; only flown route is shown


Map Options




Map Legend


Flown Route
Filed Route
Departure Airport
Arrival Airport
Navaid (VOR, NDB)
Fix

Horizontal Profiles

Position Reports

Time Latitude Longitude Heading Altitude Ground
Speed
12-Feb-19 17:54 36.209522 -115.186424 180 2166ft 0kts
12-Feb-19 17:55 36.209522 -115.186424 180 2166ft 0kts
12-Feb-19 17:56 36.209522 -115.186424 180 2166ft 0kts
12-Feb-19 17:57 36.209522 -115.186424 180 2166ft 0kts
12-Feb-19 17:58 36.209522 -115.186424 180 2166ft 0kts
12-Feb-19 17:59 36.209522 -115.186424 180 2166ft 0kts
12-Feb-19 18:00 36.209522 -115.186424 180 2166ft 0kts
12-Feb-19 18:01 36.209522 -115.186424 180 2166ft 0kts
12-Feb-19 18:06 36.209522 -115.186424 180 2166ft 0kts
12-Feb-19 18:07 36.209522 -115.186424 180 2166ft 0kts
12-Feb-19 18:08 36.209522 -115.186424 180 2166ft 0kts
12-Feb-19 18:09 36.209522 -115.186424 180 2166ft 0kts
12-Feb-19 18:10 36.209522 -115.186424 180 2166ft 0kts
12-Feb-19 18:11 36.209522 -115.186424 180 2166ft 0kts
12-Feb-19 18:12 36.209522 -115.186424 180 2166ft 0kts
12-Feb-19 18:13 36.209522 -115.186424 180 2166ft 0kts
12-Feb-19 18:14 36.209522 -115.186424 180 2166ft 0kts
12-Feb-19 18:15 36.209522 -115.186424 180 2166ft 0kts
12-Feb-19 18:16 36.209522 -115.186424 180 2166ft 0kts
12-Feb-19 18:17 36.209522 -115.186424 180 2166ft 0kts
12-Feb-19 18:18 36.209522 -115.186424 180 2166ft 0kts
12-Feb-19 18:19 36.208116 -115.186939 202 2163ft 8kts
12-Feb-19 18:20 36.207553 -115.187596 234 2164ft 0kts
12-Feb-19 18:21 36.207413 -115.188606 315 2165ft 7kts
12-Feb-19 18:22 36.209239 -115.190907 314 2175ft 8kts
12-Feb-19 18:23 36.210309 -115.192554 240 2182ft 1kts
12-Feb-19 18:24 36.210297 -115.192576 235 2182ft 0kts
12-Feb-19 18:25 36.210260 -115.192628 223 2182ft 2kts
12-Feb-19 18:26 36.210525 -115.194025 314 2187ft 9kts
12-Feb-19 18:27 36.212586 -115.196450 319 2194ft 5kts
12-Feb-19 18:28 36.212369 -115.196350 133 2194ft 0kts
12-Feb-19 18:29 36.193564 -115.173083 151 3127ft 132kts
12-Feb-19 18:30 36.165403 -115.192234 267 4889ft 154kts
12-Feb-19 18:31 36.182731 -115.236503 317 6930ft 144kts
12-Feb-19 18:32 36.217334 -115.265837 323 8574ft 164kts
12-Feb-19 18:33 36.258991 -115.288361 8 10519ft 175kts
12-Feb-19 18:34 36.262274 -115.246346 184 12098ft 136kts
12-Feb-19 18:35 36.225149 -115.242560 172 13792ft 148kts
12-Feb-19 18:36 36.185948 -115.221189 167 15003ft 170kts
12-Feb-19 18:37 36.137327 -115.193052 164 14985ft 202kts
12-Feb-19 18:38 36.086748 -115.163768 164 15774ft 193kts
12-Feb-19 18:39 36.068505 -115.120180 118 17133ft 208kts
12-Feb-19 18:40 36.050099 -115.054889 118 18946ft 202kts
12-Feb-19 18:41 36.028444 -114.978445 115 19111ft 255kts
12-Feb-19 18:42 36.006914 -114.902506 117 20977ft 219kts
12-Feb-19 18:44 35.979237 -114.842034 146 22856ft 201kts
12-Feb-19 18:45 35.936745 -114.787894 144 24522ft 216kts
12-Feb-19 18:46 35.894918 -114.734536 143 25930ft 235kts
12-Feb-19 18:47 35.848234 -114.674997 142 27285ft 249kts
12-Feb-19 18:48 35.800961 -114.614812 142 28436ft 261kts
12-Feb-19 18:49 35.750207 -114.550294 141 29507ft 273kts
12-Feb-19 18:50 35.697425 -114.483270 142 30603ft 285kts
12-Feb-19 18:51 35.640889 -114.411753 141 31190ft 316kts
12-Feb-19 18:52 35.579190 -114.333785 141 31175ft 349kts
12-Feb-19 18:53 35.511260 -114.248151 140 31169ft 361kts
12-Feb-19 18:54 35.440651 -114.159404 140 31169ft 366kts
12-Feb-19 18:55 35.365871 -114.065649 141 31169ft 369kts
12-Feb-19 18:56 35.293681 -113.975501 140 31179ft 371kts
12-Feb-19 18:57 35.241380 -113.867771 96 31062ft 380kts
12-Feb-19 18:58 35.219897 -113.740165 102 30142ft 386kts
12-Feb-19 18:59 35.193196 -113.613516 102 29215ft 382kts
12-Feb-19 19:00 35.167224 -113.491237 102 29180ft 366kts
12-Feb-19 19:00 35.145941 -113.391403 102 29177ft 361kts
12-Feb-19 19:01 35.120867 -113.274321 102 29174ft 358kts
12-Feb-19 19:03 35.091429 -113.137603 102 29156ft 356kts
12-Feb-19 19:04 35.066074 -113.020544 102 29160ft 356kts
12-Feb-19 19:04 35.044832 -112.922935 102 29189ft 355kts
12-Feb-19 19:05 35.019383 -112.806456 102 29226ft 355kts
12-Feb-19 19:06 34.993830 -112.690144 102 29238ft 356kts
12-Feb-19 19:07 34.967990 -112.573100 102 29239ft 356kts
12-Feb-19 19:08 34.939188 -112.457833 118 29227ft 357kts
12-Feb-19 19:09 34.881421 -112.365117 129 29221ft 355kts
12-Feb-19 19:10 34.822832 -112.271037 129 29222ft 353kts
12-Feb-19 19:11 34.763511 -112.175981 129 29225ft 352kts
12-Feb-19 19:12 34.705390 -112.082766 130 27752ft 343kts
12-Feb-19 19:13 34.648760 -111.992318 130 25684ft 327kts
12-Feb-19 19:14 34.595905 -111.907938 131 24045ft 302kts
12-Feb-19 19:15 34.546532 -111.829489 131 22488ft 284kts
12-Feb-19 19:16 34.499534 -111.754907 130 21014ft 272kts
12-Feb-19 19:17 34.454382 -111.683602 133 19574ft 261kts
12-Feb-19 19:18 34.394660 -111.681400 199 18449ft 221kts
12-Feb-19 19:19 34.334813 -111.699156 199 16887ft 223kts
12-Feb-19 19:20 34.280891 -111.715470 199 16229ft 194kts
12-Feb-19 19:21 34.226223 -111.731885 197 14726ft 210kts
12-Feb-19 19:22 34.168986 -111.748925 196 13163ft 212kts
12-Feb-19 19:23 34.112144 -111.765834 195 11560ft 209kts
12-Feb-19 19:24 34.055722 -111.782652 193 10015ft 207kts
12-Feb-19 19:25 34.002507 -111.798406 192 8808ft 200kts
12-Feb-19 19:26 33.954351 -111.812710 192 7102ft 156kts
12-Feb-19 19:27 33.913143 -111.824935 191 6995ft 148kts
12-Feb-19 19:28 33.874366 -111.836335 192 7005ft 147kts
12-Feb-19 19:29 33.833964 -111.848314 192 7000ft 150kts
12-Feb-19 19:30 33.794620 -111.859918 192 6044ft 138kts
12-Feb-19 19:31 33.761996 -111.869550 190 5313ft 119kts
12-Feb-19 19:32 33.729536 -111.879135 193 5301ft 121kts
12-Feb-19 19:33 33.700610 -111.889994 198 4520ft 105kts
12-Feb-19 19:34 33.674561 -111.900821 197 3476ft 97kts
12-Feb-19 19:35 33.648563 -111.910565 203 2513ft 100kts
12-Feb-19 19:36 33.629574 -111.932875 231 2545ft 84kts
12-Feb-19 19:37 33.610170 -111.931877 119 1789ft 83kts
12-Feb-19 19:38 33.620568 -111.913214 43 1461ft 31kts
12-Feb-19 19:39 33.621830 -111.910608 44 1469ft 4kts
12-Feb-19 19:40 33.622580 -111.909202 104 1473ft 0kts
12-Feb-19 19:41 33.622580 -111.909203 104 1473ft 0kts
12-Feb-19 19:42 33.622580 -111.909203 104 1473ft 0kts
12-Feb-19 19:43 33.622580 -111.909203 104 1473ft 0kts
12-Feb-19 19:44 33.622580 -111.909203 104 1473ft 0kts
12-Feb-19 19:45 36.209513 -115.186425 180 2167ft 0kts
12-Feb-19 19:46 36.209513 -115.186425 180 2167ft 0kts

Navigation Log

Ident Type
Flight plan parsing failed, navigation log unavailable